ACT        NSW        VIC        QLD        SA        WA        TAS        NT        INFO        CALC            by VK5ZD

  Atmospheric Gas Attenuation - ITU Rec 676-11   --------------- db/100km ---------------
Station Date Time Temp RH % AH g/m3 Dew Point Wind Direction Speed kph Gust kph Barometer mB Rainfall Since 9am 24GHz 47GHz 76GHz 122GHz 134GHz 241GHz
Alva Beach 13 07:10 17.7 47 7.09 6.3 11 19 1017.4 0 16.2 22.7 32.5 84.9 75.5 258.6
Amberley 13 07:10 13 97 11 12.5 6 6 1017.2 1.8 24.8 30.4 50.6 133.2 133.3 460.4
Applethorpe 13 07:10 4.5 92 6.05 3.3 6 6 1013.1 0.2 14.5 24.3 33.7 88.2 74.6 254.0
Archerfield 13 07:10 14 88 10.61 12 13 13 1017 1.4 23.9 29.3 48.2 126.9 126.0 434.9
Ayr 13 07:10 16.9 42 6.04 3.9 7 11 1013.1 0 14.0 21.2 28.9 75.4 63.7 217.1
Ballera 13 07:10 4.5 92 6.05 3.3 9 9 1023.4 0 14.5 24.7 34.2 89.2 75.3 256.2
Beaudesert Aws 13 07:00 12.5 100 11 12.5 0 0 1017.1 0.6 24.8 30.6 50.9 134.0 134.2 463.3
Beerburrum 13 07:10 13.1 95 10.84 12.3 0 0 1013.1 5.2 24.4 29.9 49.6 130.6 130.4 450.2
Biloela 13 07:10 10.5 84 8.15 7.9 6 6 1019.2 0.8 18.8 26.4 39.9 104.6 97.0 333.1
Birdsville 13 07:10 3.3 80 4.86 0.2 9 9 1025 0 12.0 23.2 29.9 77.6 60.5 203.9
Blackall 13 07:10 2 75 4.17 -2 7 7 1022.3 0 10.6 22.3 27.5 71.3 52.2 174.7
Blackwater Airport 13 07:10 11.6 59 6.13 3.9 17 20 1019.5 0 14.4 22.8 31.4 82.0 69.5 236.9
Bowen Airport Aws 13 07:10 17.3 49 7.22 6.7 19 20 1013.1 0 16.5 22.8 32.9 86.2 77.1 264.4
Brisbane 13 07:10 14.4 88 10.88 12.4 6 7 1013.1 4.6 24.4 29.5 49.0 128.9 128.7 444.7
Brisbane Airport 13 07:10 13.8 97 11.56 13.3 9 9 1016.9 6 25.9 31.1 52.5 138.4 140.0 483.9
Bundaberg 13 07:10 15.7 95 12.71 14.9 9 9 1016.9 6.2 28.3 32.5 56.4 148.6 153.3 530.5
Burketown Airport 13 07:10 14.6 37 4.63 0.1 32 35 1019.5 0 11.1 20.0 25.0 64.9 49.6 167.2
Cairns 13 07:10 21 84 15.39 18.2 9 11 1015.4 0.2 33.6 35.2 64.3 169.8 181.1 628.3
Cairns Racecourse 13 07:10 19.7 93 15.79 18.5 6 6 1013.1 0.4 34.6 36.4 67.1 177.3 190.1 659.3
Camooweal 13 07:10 5.4 64 4.47 -0.8 13 13 1023.4 0 11.1 22.0 27.5 71.4 53.8 180.8
Canungra (Defence) 13 07:10 11.4 99 10.16 11.2 0 0 1013.1 0.4 23.1 29.3 47.7 125.5 123.4 425.6
Cape Flattery 13 07:10 23.4 90 18.92 21.7 24 28 1014.8 0.2 40.9 40.7 78.6 207.8 228.6 793.9
Cape Moreton 13 07:10 15.2 96 12.46 14.6 13 17 1016.8 11.4 27.8 32.2 55.6 146.6 150.6 521.0
Carters Bore 13 07:10 7.6 63 5.08 1 9 11 1013.1 0 12.3 22.0 28.7 74.7 59.3 200.7
Century Mine 13 07:10 11.9 38 4.03 -1.9 13 15 1021.4 0 10.0 19.8 23.9 61.7 44.5 148.9
Charleville 13 07:10 2.7 91 5.31 1.4 0 0 1021.2 0 13.0 23.9 31.8 82.8 66.8 225.9
Clermont Airport 13 07:10 3.9 73 4.61 -0.5 7 7 1013.1 0 11.4 22.2 28.2 73.4 56.1 188.9
Cloncurry 13 07:10 8 57 4.71 0 7 9 1022.5 0 11.5 21.7 27.5 71.5 55.0 185.3
Coen Airport 13 07:10 22.5 80 15.98 18.9 13 15 1014.3 0 34.8 35.6 65.6 173.4 186.1 645.8
Cooktown 13 07:10 23.9 77 16.66 19.6 20 24 1014.9 0 36.1 36.3 67.5 178.4 192.7 669.0
Coolangatta 13 07:10 13.8 88 10.49 11.8 0 0 1016.3 0.4 23.6 29.2 47.8 125.8 124.5 429.8
Cowley Beach (Defence) 13 07:10 21.7 80 15.26 18.1 9 13 1013.1 0 33.3 34.6 63.0 166.3 177.3 614.9
Dalby 13 07:10 8 87 7.2 6 7 7 1019 1.4 16.8 25.5 37.2 97.3 87.0 297.8
Double Island Point 13 07:10 15.4 99 13.01 15.2 19 22 1016.3 1.4 29.0 33.1 57.9 152.8 158.3 548.0
Emerald 13 07:10 9 71 6.26 4 13 13 1020.3 0 14.8 23.7 33.0 86.1 73.6 250.9
Gatton 13 07:10 12 79 8.42 8.5 15 17 1013.1 4.6 19.3 26.1 40.0 104.9 98.3 337.8
Gayndah 13 07:10 12.4 73 7.98 7.7 11 11 1013.1 0 18.3 25.3 38.0 99.6 91.9 315.7
Georgetown Airport 13 07:10 11.9 50 5.3 1.8 9 9 1018.2 0 12.6 21.5 28.2 73.4 59.1 200.4
Gladstone Airport 13 07:10 16.5 91 12.78 15 6 7 1017.3 20.4 28.4 32.3 56.1 148.0 152.8 528.7
Gold Coast Seaway 13 07:10 15.7 88 11.77 13.7 7 7 1016.4 0.4 26.3 30.8 52.2 137.4 139.5 482.4
Greenbank (Defence) 13 07:10 13.1 99 11.3 12.9 0 0 1013.1 0.2 25.4 30.7 51.7 136.1 137.1 473.6
Gympie 13 07:10 14.2 96 11.72 13.5 0 0 1013.1 16.6 26.3 31.1 52.8 139.1 141.2 488.2
Hamilton Island 13 07:10 19.9 60 10.31 11.9 22 28 1016.8 0.8 22.9 27.0 43.6 114.5 112.8 389.5
Hervey Bay 13 07:10 15.1 92 11.87 13.8 9 11 1017.3 0.8 26.5 31.2 53.1 139.8 142.2 491.6
Horn Island 13 07:10 25.2 80 18.62 21.5 15 17 1012.4 0 40.1 39.2 75.1 198.8 218.2 758.0
Hughenden 13 07:10 3.4 57 3.48 -4.3 7 7 1021.7 0 9.0 20.9 24.4 63.0 42.6 141.1
Innisfail Aero 13 07:10 19.4 100 16.68 19.4 2 6 1016.6 1.6 36.5 38.4 71.8 189.8 205.2 711.9
Julia Creek 13 07:10 7.6 55 4.43 -0.8 22 24 1022.2 0 10.9 21.3 26.6 69.0 51.8 174.0
Kingaroy 13 07:10 8.8 87 7.58 6.8 6 7 1018.6 4.2 17.6 25.9 38.3 100.4 91.3 312.7
Kowanyama 13 07:10 19.6 30 5.06 1.6 13 15 1015.3 0 11.9 19.4 24.8 64.5 51.0 172.9
Lady Elliot Island 13 07:10 18.1 93 14.37 16.9 30 33 1016.6 0 31.7 34.6 62.1 163.8 172.9 599.1
Lake Julius 13 07:10 11.1 51 5.14 1.3 13 17 1013.1 0 12.3 21.3 27.7 72.1 57.5 194.7
Lochington 13 07:10 7.7 68 5.52 2.3 6 7 1013.1 0 13.3 22.6 30.3 79.1 64.8 219.9
Lockhart River 13 07:10 23.6 91 19.35 22 13 15 1013.8 0 41.9 41.4 80.4 212.6 234.7 815.0
Longreach 13 07:10 4.9 71 4.8 0.1 15 15 1022.7 0 11.8 22.6 29.0 75.3 58.3 196.7
Low Isles 13 07:10 22.9 79 16.14 19.1 19 19 1015.4 0.2 35.1 35.8 66.1 174.5 187.6 651.1
Lucinda 13 07:10 21.5 41 7.73 7.7 32 35 1017.1 0 17.4 22.7 33.2 86.9 79.3 272.5
Mackay 13 07:10 15.7 63 8.43 8.7 13 15 1017.9 0.2 19.1 25.3 38.4 100.7 94.2 324.0
Mackay Airport 13 07:10 15.4 65 8.54 8.9 9 9 1017.1 0.2 19.4 25.5 38.9 102.1 95.9 330.0
Mareeba 13 07:10 17.8 89 13.51 16 15 17 1017.6 0 29.9 33.1 58.5 154.2 160.8 557.1
Maryborough 13 07:10 15.4 96 12.61 14.8 7 9 1017.2 6.4 28.1 32.4 56.2 148.0 152.5 527.5
Middle Percy Island 13 07:10 18.1 90 13.9 16.4 20 28 1013.1 0 30.7 33.5 59.7 157.6 165.4 573.1
Miles 13 07:10 6.8 99 7.58 6.7 6 7 1020.6 0 17.7 26.5 39.4 103.2 93.8 321.4
Moranbah Airport 13 07:10 9 68 6 3.4 9 9 1019.9 0 14.2 23.3 32.0 83.4 70.2 239.0
Mornington Island Airport 13 07:10 17.8 43 6.53 5.1 32 44 1018.4 0 15.0 21.9 30.5 79.6 68.9 235.5
Mount Isa 13 07:10 7.4 62 4.93 0.6 17 17 1022.9 0 12.0 22.2 28.6 74.3 58.1 196.4
Mount Stuart (Defence) 13 07:10 17 37 5.35 2.2 19 24 1013.1 0 12.6 20.2 26.5 69.0 55.8 189.4
Nambour 13 07:10 14.3 97 11.92 13.9 2 2 1013.1 10.2 26.7 31.4 53.6 141.3 144.0 497.7
New May Downs 13 07:10 7.8 60 4.9 0.5 9 11 1013.1 0 11.9 21.7 28.0 72.8 57.0 192.4
Normanton 13 07:10 15.6 34 4.52 -0.2 20 26 1018.9 0 10.9 19.6 24.3 63.1 47.7 160.8
Oakey 13 07:10 7.2 97 7.62 6.8 11 13 1018.9 0.8 17.8 26.4 39.3 103.0 93.8 321.3
Palmerville 13 07:10 20.9 81 14.75 17.5 0 0 1015.3 0 32.3 34.1 61.5 162.3 171.9 596.2
Portable Qfrg Nr 13 07:00 17.6 33 4.95 1.1 2 4 1013.1 0 11.7 19.6 25.0 64.9 51.0 172.5
Portable Qfri (Inglewood) 13 07:00 3.7 92 5.74 2.6 7 7 1013.1 0 13.9 24.0 32.8 85.7 71.2 241.8
Portable Qfrj (North Tamborine) 13 07:00 12.1 72 7.72 7.2 6 6 1013.1 0.2 17.8 25.0 37.1 97.2 88.9 304.9
Portable Qfrk (Ravenshoe) 13 07:00 12.4 99 10.82 12.2 0 2 1013.1 0 24.4 30.1 50.0 131.6 131.3 453.3
Portable Qfrl (Mt Fox) 13 07:00 10.3 60 5.75 3 1013.1 0.2 13.7 22.4 30.2 78.9 65.5 222.9
Proserpine 13 07:10 15.3 79 10.32 11.7 11 13 1016.7 0.2 23.2 28.4 46.2 121.5 119.8 413.5
Redcliffe 13 07:10 14.6 99 12.39 14.4 7 7 1016.9 2.6 27.7 32.3 55.7 146.9 150.8 521.5
Redland (Alexandra Hills) 13 07:10 14.4 100 12.36 14.4 7 9 1013.1 3 27.6 32.2 55.5 146.4 150.3 519.8
Richmond 13 07:10 5.2 62 4.27 -1.5 15 17 1021.8 0 10.7 21.6 26.8 69.5 51.4 172.2
Rockhampton 13 07:10 15.3 75 9.79 10.9 11 13 1017.5 8.2 22.0 27.6 44.0 115.7 112.6 388.5
Rolleston Airport 13 07:10 6.2 84 6.18 3.7 6 6 1013.1 0 14.7 24.1 33.5 87.7 74.7 254.6
Roma 13 07:10 2.4 99 5.66 2.3 6 6 1021.1 0 13.7 24.6 33.3 87.0 71.8 243.6
Samuel Hill 13 07:10 17.7 99 14.94 17.5 7 9 1016.8 0.8 32.9 35.8 65.1 171.8 182.5 632.7
Scherger 13 07:10 23.1 81 16.74 19.7 7 11 1013.1 0 36.3 36.7 68.5 181.0 195.7 679.4
South Johnstone 13 07:10 19.8 97 16.57 19.3 0 0 1017.1 2.4 36.3 38.0 71.0 187.5 202.5 702.4
St George 13 07:10 4.7 90 6 3.2 9 11 1020.4 0 14.4 24.5 33.8 88.1 74.2 252.5
St Lawrence 13 07:10 13.7 84 9.95 11 4 6 1017.9 2 22.5 28.3 45.6 120.0 117.3 404.4
Sunshine Coast Airport 13 07:10 15.4 96 12.61 14.8 7 9 1016.6 23 28.1 32.4 56.1 148.0 152.4 527.3
Thargomindah 13 07:10 5.5 88 6.18 3.7 7 9 1022.7 0 14.8 24.6 34.2 89.4 76.1 259.0
The Monument 13 07:10 4.3 68 4.41 -1.1 13 13 1023.7 0 11.0 22.2 27.7 71.9 53.8 180.7
Tin Can Bay (Defence) 13 07:10 14.6 95 11.89 13.8 4 4 1013.1 4.8 26.6 31.2 53.3 140.4 142.9 494.3
Toowoomba 13 07:10 7.2 96 7.54 6.6 11 13 1019.6 1.6 17.6 26.3 39.0 102.2 92.7 317.5
Townsville 13 07:10 19.3 29 4.81 0.8 20 24 1017.9 0 11.4 19.2 24.2 62.7 48.6 164.5
Townsville - Fanning River (Defence) 13 07:10 13.5 39 4.56 -0.2 13 17 1013.1 0 11.0 19.9 24.9 64.7 49.2 165.7
Townsville Air Weapons Range (Defence) 13 07:10 12.5 52 5.72 2.9 9 9 1013.1 0 13.5 21.8 29.3 76.5 63.4 215.6
Trepell 13 07:10 4.2 62 4 -2.4 9 11 1023.3 0 10.1 21.5 26.2 67.7 48.7 162.6
Urandangi 13 07:10 1.2 63 3.32 -5.1 0 0 1013.1 0 8.7 20.8 24.1 62.5 41.4 136.9
Warwick 13 07:10 8.2 100 8.38 8.2 0 0 1018 3 19.4 27.4 42.0 110.2 103.1 354.2
Weipa 13 07:10 23 82 16.85 19.8 6 6 1012.9 0 36.6 36.9 69.1 182.5 197.6 685.9
Wellcamp Airport 13 07:09 6.4 92 6.86 5.2 4 6 1019.1 0.8 16.2 25.4 36.5 95.5 84.2 287.5
Williamson 13 07:10 17.1 90 13.1 15.4 13 13 1017.2 0.2 29.0 32.7 57.1 150.6 156.2 540.9
Willis Island 13 07:10 24.9 82 18.77 21.6 26 28 1014.6 5.2 40.5 39.7 76.3 201.8 221.7 770.1
Windorah 13 07:10 4.1 80 5.12 1 7 7 1023.6 0 12.5 23.3 30.6 79.5 63.2 213.6
Winton 13 07:10 5.7 71 5.06 0.8 6 6 1013.1 0 12.3 22.4 29.3 76.4 60.5 204.7
Woolshed 13 07:10 11.6 49 5.09 1.2 6 9 1013.1 0 12.2 21.1 27.4 71.2 56.5 191.4
Yeppoon 13 07:10 17.8 94 14.27 16.8 9 11 1016.9 0 31.5 34.5 61.9 163.3 172.1 596.3

Last Refresh: 13-Jul-2020 06:49:35

The information presented on this site is sourced from the Bureau of Meteorology.  Copyright in all material sourced from the Bureau of Meteorology resides with the Commonwealth of Australia.